createdAt,value
2022-09-19T00:01:19.275Z,100.00
2022-09-19T00:02:20.802Z,100.00
2022-09-19T00:03:22.257Z,100.00
2022-09-19T00:04:27.881Z,100.00
2022-09-19T00:05:29.578Z,100.00
2022-09-19T00:06:33.324Z,100.00
2022-09-19T00:07:34.743Z,100.00
2022-09-19T00:08:36.526Z,100.00
2022-09-19T00:09:37.973Z,100.00
2022-09-19T00:10:40.696Z,100.00
2022-09-19T00:11:44.355Z,100.00
2022-09-19T00:12:45.786Z,100.00
2022-09-19T00:13:48.715Z,100.00
2022-09-19T00:14:50.127Z,100.00
2022-09-19T00:15:51.465Z,100.00
2022-09-19T00:17:11.077Z,100.00
2022-09-19T00:18:12.517Z,100.00
2022-09-19T00:19:18.939Z,100.00
2022-09-19T00:20:20.430Z,100.00
2022-09-19T00:21:31.120Z,100.00
2022-09-19T00:22:32.527Z,100.00
2022-09-19T00:23:33.871Z,100.00
2022-09-19T00:24:35.257Z,100.00
2022-09-19T00:25:36.599Z,100.00
2022-09-19T00:26:38.728Z,100.00
2022-09-19T00:27:40.155Z,100.00
2022-09-19T00:28:41.506Z,100.00
2022-09-19T00:29:43.196Z,100.00
2022-09-19T00:30:44.820Z,100.00
2022-09-19T00:31:46.231Z,100.00
2022-09-19T00:32:47.650Z,100.00
2022-09-19T00:33:49.507Z,100.00
2022-09-19T00:34:51.967Z,100.00
2022-09-19T00:35:53.866Z,100.00
2022-09-19T00:36:55.326Z,100.00
2022-09-19T00:37:56.741Z,100.00
2022-09-19T00:38:58.074Z,100.00
2022-09-19T00:39:59.553Z,100.00
2022-09-19T00:41:00.999Z,100.00
2022-09-19T00:42:02.399Z,100.00
2022-09-19T00:43:03.822Z,100.00
2022-09-19T00:44:06.320Z,100.00
2022-09-19T00:45:14.720Z,100.00
2022-09-19T00:46:16.482Z,100.00
2022-09-19T00:47:21.005Z,100.00
2022-09-19T00:48:23.612Z,100.00
2022-09-19T00:49:27.555Z,100.00
2022-09-19T00:50:29.932Z,100.00
2022-09-19T00:51:38.127Z,100.00
2022-09-19T00:53:14.414Z,100.00
2022-09-19T00:54:20.499Z,100.00
2022-09-19T00:55:22.026Z,100.00
2022-09-19T00:56:23.482Z,100.00
2022-09-19T00:57:29.702Z,100.00
2022-09-19T00:58:35.253Z,100.00
2022-09-19T00:59:39.021Z,100.00
2022-09-19T01:00:40.893Z,100.00
2022-09-19T01:01:43.410Z,100.00
2022-09-19T01:02:45.220Z,100.00
2022-09-19T01:03:46.793Z,100.00
2022-09-19T01:04:48.286Z,100.00
2022-09-19T01:06:26.344Z,100.00
2022-09-19T01:07:49.442Z,100.00
2022-09-19T01:09:06.270Z,100.00
2022-09-19T01:10:26.567Z,100.00
2022-09-19T01:11:53.059Z,100.00
2022-09-19T01:13:12.010Z,100.00
2022-09-19T01:14:16.335Z,100.00
2022-09-19T01:15:55.314Z,100.00
2022-09-19T01:17:10.011Z,100.00
2022-09-19T01:18:11.991Z,100.00
2022-09-19T01:19:25.991Z,100.00
2022-09-19T01:20:42.602Z,100.00
2022-09-19T01:21:59.972Z,100.00
2022-09-19T01:23:40.042Z,100.00
2022-09-19T01:24:57.281Z,100.00
2022-09-19T01:26:30.926Z,100.00
2022-09-19T01:28:14.808Z,100.00
2022-09-19T01:29:37.718Z,100.00
2022-09-19T01:30:49.135Z,100.00
2022-09-19T01:31:55.403Z,100.00
2022-09-19T01:33:10.053Z,100.00
2022-09-19T01:34:27.735Z,100.00
2022-09-19T01:35:34.507Z,100.00
2022-09-19T01:36:46.510Z,100.00
2022-09-19T01:38:12.175Z,100.00
2022-09-19T01:39:18.567Z,100.00
2022-09-19T01:40:24.599Z,100.00
2022-09-19T01:41:32.319Z,100.00
2022-09-19T01:42:34.307Z,100.00
2022-09-19T01:43:36.234Z,100.00
2022-09-19T01:44:37.838Z,100.00
2022-09-19T01:45:39.727Z,100.00
2022-09-19T01:46:53.304Z,100.00
2022-09-19T01:48:04.970Z,100.00
2022-09-19T01:49:12.623Z,100.00
2022-09-19T01:50:40.559Z,100.00
2022-09-19T01:51:50.347Z,100.00
2022-09-19T01:53:03.851Z,100.00
2022-09-19T01:54:21.349Z,100.00
2022-09-19T01:55:51.031Z,100.00
2022-09-19T01:57:01.059Z,100.00
2022-09-19T01:58:24.199Z,100.00
2022-09-19T01:59:26.298Z,100.00
2022-09-19T02:00:28.445Z,100.00
2022-09-19T02:01:41.767Z,100.00
2022-09-19T02:03:06.104Z,100.00
2022-09-19T02:04:25.071Z,100.00
2022-09-19T02:05:35.684Z,100.00
2022-09-19T02:06:45.608Z,100.00
2022-09-19T02:08:00.019Z,100.00
2022-09-19T02:09:16.781Z,100.00
2022-09-19T02:10:55.389Z,100.00
2022-09-19T02:12:02.319Z,100.00
2022-09-19T02:13:07.677Z,100.00
2022-09-19T02:14:36.010Z,100.00
2022-09-19T02:15:41.187Z,100.00
2022-09-19T02:16:49.180Z,100.00
2022-09-19T02:17:56.689Z,100.00
2022-09-19T02:19:14.924Z,100.00
2022-09-19T02:20:26.093Z,100.00
2022-09-19T02:21:47.555Z,100.00
2022-09-19T02:22:55.051Z,100.00
2022-09-19T02:23:58.868Z,100.00
2022-09-19T02:25:07.121Z,100.00
2022-09-19T02:26:09.007Z,100.00
2022-09-19T02:27:21.291Z,100.00
2022-09-19T02:28:29.469Z,100.00
2022-09-19T02:29:33.402Z,100.00
2022-09-19T02:30:37.031Z,100.00
2022-09-19T02:31:40.027Z,100.00
2022-09-19T02:32:42.523Z,100.00
2022-09-19T02:33:45.068Z,100.00
2022-09-19T02:34:51.976Z,100.00
2022-09-19T02:36:06.705Z,100.00
2022-09-19T02:37:14.780Z,100.00
2022-09-19T02:39:03.840Z,100.00
2022-09-19T02:40:33.737Z,100.00
2022-09-19T02:41:44.004Z,100.00
2022-09-19T02:43:10.426Z,100.00
2022-09-19T02:44:20.371Z,100.00
2022-09-19T02:45:35.108Z,100.00
2022-09-19T02:47:00.671Z,100.00
2022-09-19T02:48:20.559Z,100.00
2022-09-19T02:49:50.740Z,100.00
2022-09-19T02:51:08.374Z,100.00
2022-09-19T02:52:17.298Z,100.00
2022-09-19T02:53:24.916Z,100.00
2022-09-19T02:54:34.531Z,100.00
2022-09-19T02:55:41.823Z,100.00
2022-09-19T02:56:45.672Z,100.00
2022-09-19T02:57:51.034Z,100.00
2022-09-19T02:59:02.736Z,100.00
2022-09-19T03:00:18.863Z,100.00
2022-09-19T03:01:26.840Z,100.00
2022-09-19T03:02:33.877Z,100.00
2022-09-19T03:03:41.391Z,100.00
2022-09-19T03:04:48.430Z,100.00
2022-09-19T03:05:51.378Z,100.00
2022-09-19T03:06:55.891Z,100.00
2022-09-19T03:08:08.947Z,100.00
2022-09-19T03:09:14.295Z,100.00
2022-09-19T03:10:22.425Z,100.00
2022-09-19T03:11:43.461Z,100.00
2022-09-19T03:12:53.644Z,100.00
2022-09-19T03:13:55.920Z,100.00
2022-09-19T03:14:57.482Z,100.00
2022-09-19T03:16:05.066Z,100.00
2022-09-19T03:17:12.319Z,100.00
2022-09-19T03:18:16.876Z,100.00
2022-09-19T03:19:18.395Z,100.00
2022-09-19T03:20:20.478Z,100.00
2022-09-19T03:21:26.647Z,100.00
2022-09-19T03:22:28.092Z,100.00
2022-09-19T03:23:39.814Z,100.00
2022-09-19T03:24:43.005Z,100.00
2022-09-19T03:25:45.428Z,100.00
2022-09-19T03:26:47.541Z,100.00
2022-09-19T03:27:49.005Z,100.00
2022-09-19T03:28:52.440Z,100.00
2022-09-19T03:29:53.864Z,100.00
2022-09-19T03:30:55.228Z,100.00
2022-09-19T03:31:56.913Z,100.00
2022-09-19T03:32:58.468Z,100.00
2022-09-19T03:33:59.929Z,100.00
2022-09-19T03:35:01.506Z,100.00
2022-09-19T03:36:04.495Z,100.00
2022-09-19T03:37:05.947Z,100.00
2022-09-19T03:38:09.474Z,100.00
2022-09-19T03:39:10.978Z,100.00
2022-09-19T03:40:17.505Z,100.00
2022-09-19T03:41:21.690Z,100.00
2022-09-19T03:42:23.259Z,100.00
2022-09-19T03:43:24.699Z,100.00
2022-09-19T03:44:26.125Z,100.00
2022-09-19T03:45:27.637Z,100.00
2022-09-19T03:46:32.983Z,100.00
2022-09-19T03:47:34.981Z,100.00
2022-09-19T03:48:36.485Z,100.00
2022-09-19T03:49:37.985Z,100.00
2022-09-19T03:50:39.407Z,100.00
2022-09-19T03:51:45.998Z,100.00
2022-09-19T03:52:47.354Z,100.00
2022-09-19T03:53:48.864Z,100.00
2022-09-19T03:54:54.293Z,100.00
2022-09-19T03:55:55.737Z,100.00
2022-09-19T03:56:57.081Z,100.00
2022-09-19T03:57:59.075Z,100.00
2022-09-19T03:59:00.860Z,100.00
2022-09-19T04:00:04.392Z,100.00
2022-09-19T04:01:08.308Z,100.00
2022-09-19T04:02:11.414Z,100.00
2022-09-19T04:03:13.022Z,100.00
2022-09-19T04:04:15.160Z,100.00
2022-09-19T04:05:20.688Z,100.00
2022-09-19T04:06:22.453Z,100.00
2022-09-19T04:07:23.990Z,100.00
2022-09-19T04:08:25.579Z,100.00
2022-09-19T04:09:27.475Z,100.00
2022-09-19T04:10:32.395Z,100.00
2022-09-19T04:11:33.750Z,100.00
2022-09-19T04:12:35.179Z,100.00
2022-09-19T04:13:36.903Z,100.00
2022-09-19T04:14:45.556Z,100.00
2022-09-19T04:15:47.301Z,100.00
2022-09-19T04:17:07.398Z,100.00
2022-09-19T04:18:11.376Z,100.00
2022-09-19T04:19:13.599Z,100.00
2022-09-19T04:20:38.182Z,100.00
2022-09-19T04:21:58.389Z,100.00
2022-09-19T04:23:22.632Z,100.00
2022-09-19T04:24:44.343Z,100.00
2022-09-19T04:26:15.560Z,100.00
2022-09-19T04:27:21.065Z,100.00
2022-09-19T04:28:24.214Z,100.00
2022-09-19T04:29:25.669Z,100.00
2022-09-19T04:30:27.012Z,100.00
2022-09-19T04:31:32.054Z,100.00
2022-09-19T04:32:33.684Z,100.00
2022-09-19T04:33:35.807Z,100.00
2022-09-19T04:34:37.642Z,100.00
2022-09-19T04:35:39.975Z,100.00
2022-09-19T04:36:43.231Z,100.00
2022-09-19T04:37:45.129Z,100.00
2022-09-19T04:38:50.334Z,100.00
2022-09-19T04:39:58.068Z,100.00
2022-09-19T04:41:02.326Z,100.00
2022-09-19T04:42:05.838Z,100.00
2022-09-19T04:43:11.749Z,100.00
2022-09-19T04:44:15.554Z,100.00
2022-09-19T04:45:28.427Z,100.00
2022-09-19T04:46:49.455Z,100.00
2022-09-19T04:47:50.990Z,100.00
2022-09-19T04:48:53.231Z,100.00
2022-09-19T04:50:03.886Z,100.00
2022-09-19T04:51:08.102Z,100.00
2022-09-19T04:52:10.535Z,100.00
2022-09-19T04:53:12.423Z,100.00
2022-09-19T04:54:13.955Z,100.00
2022-09-19T04:55:15.579Z,100.00
2022-09-19T04:56:17.223Z,100.00
2022-09-19T04:57:18.671Z,100.00
2022-09-19T04:58:21.853Z,100.00
2022-09-19T04:59:23.510Z,100.00
2022-09-19T05:00:25.734Z,100.00
2022-09-19T05:01:27.623Z,100.00
2022-09-19T05:02:29.278Z,100.00
2022-09-19T05:03:30.753Z,100.00
2022-09-19T05:04:33.930Z,100.00
2022-09-19T05:05:37.013Z,100.00
2022-09-19T05:06:39.482Z,100.00
2022-09-19T05:07:46.306Z,100.00
2022-09-19T05:08:48.248Z,100.00
2022-09-19T05:09:57.503Z,100.00
2022-09-19T05:11:08.415Z,100.00
2022-09-19T05:12:10.819Z,100.00
2022-09-19T05:13:18.583Z,100.00
2022-09-19T05:14:20.292Z,100.00
2022-09-19T05:15:28.271Z,100.00
2022-09-19T05:16:29.781Z,100.00
2022-09-19T05:17:34.326Z,100.00
2022-09-19T05:18:35.772Z,100.00
2022-09-19T05:19:37.221Z,100.00
2022-09-19T05:20:40.420Z,100.00
2022-09-19T05:21:41.833Z,100.00
2022-09-19T05:22:43.942Z,100.00
2022-09-19T05:23:45.394Z,100.00
2022-09-19T05:24:46.758Z,100.00
2022-09-19T05:25:48.194Z,100.00
2022-09-19T05:26:49.543Z,100.00
2022-09-19T05:27:52.064Z,100.00
2022-09-19T05:28:54.351Z,100.00
2022-09-19T05:29:58.340Z,100.00
2022-09-19T05:31:00.804Z,100.00
2022-09-19T05:32:04.531Z,100.00
2022-09-19T05:33:29.018Z,100.00
2022-09-19T05:34:33.599Z,100.00
2022-09-19T05:35:35.114Z,100.00
2022-09-19T05:36:55.158Z,100.00
2022-09-19T05:38:24.858Z,100.00
2022-09-19T05:39:26.203Z,100.00
2022-09-19T05:40:57.046Z,100.00
2022-09-19T05:42:17.131Z,100.00
2022-09-19T05:43:19.662Z,100.00
2022-09-19T05:44:21.970Z,100.00
2022-09-19T05:45:28.583Z,100.00
2022-09-19T05:46:31.596Z,100.00
2022-09-19T05:47:33.263Z,100.00
2022-09-19T05:48:34.614Z,100.00
2022-09-19T05:49:36.076Z,100.00
2022-09-19T05:50:37.843Z,100.00
2022-09-19T05:51:40.263Z,100.00
2022-09-19T05:52:46.063Z,100.00
2022-09-19T05:53:48.586Z,100.00
2022-09-19T05:55:13.011Z,100.00
2022-09-19T05:56:24.611Z,100.00
2022-09-19T05:57:32.990Z,100.00
2022-09-19T05:58:34.322Z,100.00
2022-09-19T05:59:35.835Z,100.00
2022-09-19T06:00:37.882Z,100.00
2022-09-19T06:01:40.295Z,100.00
2022-09-19T06:02:59.596Z,100.00
2022-09-19T06:04:01.434Z,100.00
2022-09-19T06:05:04.299Z,100.00
2022-09-19T06:06:12.409Z,100.00
2022-09-19T06:07:13.851Z,100.00
2022-09-19T06:08:21.017Z,100.00
2022-09-19T06:09:22.518Z,100.00
2022-09-19T06:10:28.527Z,100.00
2022-09-19T06:11:30.939Z,100.00
2022-09-19T06:12:32.403Z,100.00
2022-09-19T06:13:33.909Z,100.00
2022-09-19T06:14:35.367Z,100.00
2022-09-19T06:15:38.770Z,100.00
2022-09-19T06:16:40.398Z,100.00
2022-09-19T06:18:00.285Z,100.00
2022-09-19T06:19:15.747Z,100.00
2022-09-19T06:20:17.971Z,100.00
2022-09-19T06:21:34.274Z,100.00
2022-09-19T06:22:36.299Z,100.00
2022-09-19T06:23:37.892Z,100.00
2022-09-19T06:24:39.287Z,100.00
2022-09-19T06:25:42.402Z,100.00
2022-09-19T06:26:44.528Z,100.00
2022-09-19T06:27:53.086Z,100.00
2022-09-19T06:28:54.768Z,100.00
2022-09-19T06:29:56.198Z,100.00
2022-09-19T06:31:04.272Z,100.00
2022-09-19T06:32:13.293Z,100.00
2022-09-19T06:33:18.078Z,100.00
2022-09-19T06:34:56.728Z,100.00
2022-09-19T06:35:59.022Z,100.00
2022-09-19T06:37:01.487Z,100.00
2022-09-19T06:38:05.419Z,100.00
2022-09-19T06:39:06.833Z,100.00
2022-09-19T06:40:16.509Z,100.00
2022-09-19T06:41:25.199Z,100.00
2022-09-19T06:42:43.731Z,100.00
2022-09-19T06:44:23.521Z,100.00
2022-09-19T06:45:40.417Z,100.00
2022-09-19T06:46:55.450Z,100.00
2022-09-19T06:48:12.694Z,100.00
2022-09-19T06:49:20.719Z,100.00
2022-09-19T06:50:30.198Z,100.00
2022-09-19T06:51:35.494Z,100.00
2022-09-19T06:52:38.180Z,100.00
2022-09-19T06:53:41.199Z,100.00
2022-09-19T06:54:44.238Z,100.00
2022-09-19T06:55:47.522Z,100.00
2022-09-19T06:56:53.401Z,100.00
2022-09-19T06:58:05.808Z,100.00
2022-09-19T06:59:07.985Z,100.00
2022-09-19T07:00:10.087Z,100.00
2022-09-19T07:01:11.656Z,100.00
2022-09-19T07:02:14.071Z,100.00
2022-09-19T07:03:17.519Z,100.00
2022-09-19T07:04:23.830Z,100.00
2022-09-19T07:05:42.784Z,100.00
2022-09-19T07:06:56.586Z,100.00
2022-09-19T07:07:58.467Z,100.00
2022-09-19T07:08:59.898Z,100.00
2022-09-19T07:10:01.277Z,100.00
2022-09-19T07:11:02.935Z,100.00
2022-09-19T07:12:09.686Z,100.00
2022-09-19T07:13:13.286Z,100.00
2022-09-19T07:14:14.802Z,100.00
2022-09-19T07:15:16.243Z,100.00
2022-09-19T07:16:19.149Z,100.00
2022-09-19T07:17:20.739Z,100.00
2022-09-19T07:18:23.771Z,100.00
2022-09-19T07:19:26.822Z,100.00
2022-09-19T07:20:46.777Z,100.00
2022-09-19T07:21:53.439Z,100.00
2022-09-19T07:23:11.312Z,100.00
2022-09-19T07:24:33.043Z,100.00
2022-09-19T07:25:55.939Z,100.00
2022-09-19T07:26:57.427Z,100.00
2022-09-19T07:28:04.605Z,100.00
2022-09-19T07:29:07.351Z,100.00
2022-09-19T07:30:09.698Z,100.00
2022-09-19T07:31:11.182Z,100.00
2022-09-19T07:32:15.251Z,100.00
2022-09-19T07:33:20.647Z,100.00
2022-09-19T07:34:22.175Z,100.00
2022-09-19T07:35:35.439Z,100.00
2022-09-19T07:36:37.648Z,100.00
2022-09-19T07:37:39.131Z,100.00
2022-09-19T07:39:02.015Z,100.00
2022-09-19T07:40:30.815Z,100.00
2022-09-19T07:41:39.175Z,100.00
2022-09-19T07:43:02.298Z,100.00
2022-09-19T07:44:23.522Z,100.00
2022-09-19T07:45:47.530Z,100.00
2022-09-19T07:47:12.582Z,100.00
2022-09-19T07:48:38.494Z,100.00
2022-09-19T07:50:00.163Z,100.00
2022-09-19T07:51:11.488Z,100.00
2022-09-19T07:52:14.454Z,100.00
2022-09-19T07:53:21.158Z,100.00
2022-09-19T07:54:22.583Z,100.00
2022-09-19T07:55:24.004Z,100.00
2022-09-19T07:56:25.639Z,100.00
2022-09-19T07:57:29.076Z,100.00
2022-09-19T07:58:30.781Z,100.00
2022-09-19T07:59:35.761Z,100.00
2022-09-19T08:00:39.670Z,100.00
2022-09-19T08:01:41.354Z,100.00
2022-09-19T08:03:01.123Z,100.00
2022-09-19T08:04:04.406Z,100.00
2022-09-19T08:05:19.188Z,100.00
2022-09-19T08:06:24.446Z,100.00
2022-09-19T08:07:26.326Z,100.00
2022-09-19T08:08:27.801Z,100.00
2022-09-19T08:09:30.858Z,100.00
2022-09-19T08:10:47.470Z,100.00
2022-09-19T08:11:50.820Z,100.00
2022-09-19T08:12:52.615Z,100.00
2022-09-19T08:13:54.141Z,100.00
2022-09-19T08:14:57.773Z,100.00
2022-09-19T08:16:03.251Z,100.00
2022-09-19T08:17:05.520Z,100.00
2022-09-19T08:18:13.019Z,100.00
2022-09-19T08:19:14.454Z,100.00
2022-09-19T08:20:17.102Z,100.00
2022-09-19T08:21:20.475Z,100.00
2022-09-19T08:22:22.042Z,100.00
2022-09-19T08:23:30.253Z,100.00
2022-09-19T08:24:33.639Z,100.00
2022-09-19T08:25:43.578Z,100.00
2022-09-19T08:26:46.175Z,100.00
2022-09-19T08:27:48.370Z,100.00
2022-09-19T08:28:50.007Z,100.00
2022-09-19T08:29:52.127Z,100.00
2022-09-19T08:30:59.725Z,100.00
2022-09-19T08:32:01.425Z,100.00
2022-09-19T08:33:04.199Z,100.00
2022-09-19T08:34:05.702Z,100.00
2022-09-19T08:35:07.482Z,100.00
2022-09-19T08:36:08.923Z,100.00
2022-09-19T08:37:10.563Z,100.00
2022-09-19T08:38:16.266Z,100.00
2022-09-19T08:39:17.967Z,100.00
2022-09-19T08:40:23.032Z,100.00
2022-09-19T08:41:33.525Z,100.00
2022-09-19T08:42:49.333Z,100.00
2022-09-19T08:44:17.892Z,100.00
2022-09-19T08:45:28.581Z,100.00
2022-09-19T08:46:52.278Z,100.00
2022-09-19T08:47:54.895Z,100.00
2022-09-19T08:49:06.499Z,100.00
2022-09-19T08:50:22.600Z,100.00
2022-09-19T08:51:37.403Z,100.00
2022-09-19T08:52:50.382Z,100.00
2022-09-19T08:54:35.656Z,100.00
2022-09-19T08:55:41.570Z,100.00
2022-09-19T08:56:49.462Z,100.00
2022-09-19T08:57:55.717Z,100.00
2022-09-19T08:59:02.939Z,100.00
2022-09-19T09:00:32.071Z,100.00
2022-09-19T09:01:38.089Z,100.00
2022-09-19T09:03:08.565Z,100.00
2022-09-19T09:04:15.121Z,100.00
2022-09-19T09:05:36.694Z,100.00
2022-09-19T09:06:52.616Z,100.00
2022-09-19T09:08:09.319Z,100.00
2022-09-19T09:09:48.456Z,100.00
2022-09-19T09:10:54.186Z,100.00
2022-09-19T09:12:26.263Z,100.00
2022-09-19T09:13:58.946Z,100.00
2022-09-19T09:15:37.908Z,100.00
2022-09-19T09:16:57.209Z,100.00
2022-09-19T09:18:24.342Z,100.00
2022-09-19T09:19:47.755Z,100.00
2022-09-19T09:21:15.832Z,100.00
2022-09-19T09:22:28.504Z,100.00
2022-09-19T09:23:52.303Z,100.00
2022-09-19T09:25:22.383Z,100.00
2022-09-19T09:26:32.290Z,100.00
2022-09-19T09:28:01.162Z,100.00
2022-09-19T09:29:23.845Z,100.00
2022-09-19T09:30:41.197Z,100.00
2022-09-19T09:31:51.482Z,100.00
2022-09-19T09:33:23.491Z,100.00
2022-09-19T09:34:28.932Z,100.00
2022-09-19T09:35:41.582Z,100.00
2022-09-19T09:37:18.071Z,100.00
2022-09-19T09:38:31.971Z,100.00
2022-09-19T09:39:48.979Z,99.68
2022-09-19T09:40:56.327Z,100.00
2022-09-19T09:42:02.303Z,100.00
2022-09-19T09:43:08.499Z,100.00
2022-09-19T09:44:13.324Z,100.00
2022-09-19T09:45:25.306Z,100.00
2022-09-19T09:46:50.815Z,100.00
2022-09-19T09:48:38.441Z,100.00
2022-09-19T09:49:57.762Z,100.00
2022-09-19T09:51:06.479Z,100.00
2022-09-19T09:52:25.701Z,100.00
2022-09-19T09:53:58.158Z,100.00
2022-09-19T09:55:34.317Z,100.00
2022-09-19T09:56:50.839Z,100.00
2022-09-19T09:58:18.179Z,100.00
2022-09-19T09:59:43.725Z,100.00
2022-09-19T10:00:51.329Z,100.00
2022-09-19T10:02:00.746Z,100.00
2022-09-19T10:03:37.768Z,100.00
2022-09-19T10:04:56.938Z,100.00
2022-09-19T10:06:05.999Z,100.00
2022-09-19T10:07:27.365Z,100.00
2022-09-19T10:08:37.735Z,100.00
2022-09-19T10:10:02.890Z,100.00
2022-09-19T10:13:01.384Z,100.00
2022-09-19T10:14:04.768Z,100.00
2022-09-19T10:15:17.439Z,100.00
2022-09-19T10:16:25.275Z,100.00
2022-09-19T10:17:34.240Z,100.00
2022-09-19T10:19:14.947Z,100.00
2022-09-19T10:20:22.303Z,100.00
2022-09-19T10:21:24.008Z,100.00
2022-09-19T10:22:28.488Z,100.00
2022-09-19T10:23:36.360Z,100.00
2022-09-19T10:24:45.716Z,100.00
2022-09-19T10:25:58.766Z,100.00
2022-09-19T10:27:00.326Z,100.00
2022-09-19T10:28:28.142Z,100.00
2022-09-19T10:30:00.886Z,100.00
2022-09-19T10:31:03.877Z,100.00
2022-09-19T10:32:09.065Z,100.00
2022-09-19T10:33:41.951Z,100.00
2022-09-19T10:34:49.326Z,100.00
2022-09-19T10:36:04.856Z,100.00
2022-09-19T10:37:13.134Z,100.00
2022-09-19T10:38:18.522Z,100.00
2022-09-19T10:39:22.766Z,100.00
2022-09-19T10:40:24.296Z,100.00
2022-09-19T10:41:28.811Z,100.00
2022-09-19T10:42:38.472Z,100.00
2022-09-19T10:43:51.407Z,98.45
2022-09-19T10:44:54.788Z,99.06
2022-09-19T10:45:56.853Z,98.96
2022-09-19T10:47:02.991Z,100.00
2022-09-19T10:48:32.948Z,100.00
2022-09-19T10:49:48.567Z,100.00
2022-09-19T10:50:56.636Z,100.00
2022-09-19T10:51:59.875Z,100.00
2022-09-19T10:53:04.971Z,100.00
2022-09-19T10:54:11.895Z,100.00
2022-09-19T10:55:19.089Z,100.00
2022-09-19T10:56:27.047Z,100.00
2022-09-19T10:57:46.549Z,100.00
2022-09-19T10:59:24.818Z,100.00
2022-09-19T11:00:46.427Z,100.00
2022-09-19T11:02:11.005Z,100.00
2022-09-19T11:03:19.573Z,100.00
2022-09-19T11:04:24.698Z,100.00
2022-09-19T11:05:32.439Z,100.00
2022-09-19T11:06:35.056Z,100.00
2022-09-19T11:07:49.918Z,100.00
2022-09-19T11:08:56.475Z,100.00
2022-09-19T11:10:32.487Z,100.00
2022-09-19T11:11:44.201Z,100.00
2022-09-19T11:12:48.545Z,100.00
2022-09-19T11:14:07.446Z,100.00
2022-09-19T11:15:13.595Z,100.00
2022-09-19T11:16:29.529Z,98.82
2022-09-19T11:18:08.629Z,100.00
2022-09-19T11:19:34.476Z,100.00
2022-09-19T11:21:13.598Z,100.00
2022-09-19T11:22:33.375Z,100.00
2022-09-19T11:24:09.516Z,100.00
2022-09-19T11:25:33.070Z,96.87
2022-09-19T11:26:49.026Z,97.77
2022-09-19T11:27:54.922Z,99.70
2022-09-19T11:29:33.548Z,99.79
2022-09-19T11:30:48.871Z,100.00
2022-09-19T11:35:47.034Z,97.42
2022-09-19T11:37:04.307Z,96.79
2022-09-19T11:39:59.301Z,95.43
2022-09-19T11:41:21.099Z,95.20
2022-09-19T11:42:45.962Z,95.72
2022-09-19T11:44:12.311Z,96.88
2022-09-19T11:45:17.501Z,95.42
2022-09-19T11:47:02.419Z,97.26
2022-09-19T11:48:24.264Z,98.33
2022-09-19T11:49:59.117Z,96.31
2022-09-19T11:51:16.679Z,96.46
2022-09-19T11:52:35.434Z,97.05
2022-09-19T11:53:54.235Z,98.23
2022-09-19T11:55:04.410Z,97.51
2022-09-19T11:56:37.280Z,97.65
2022-09-19T11:58:01.413Z,95.92
2022-09-19T11:59:41.322Z,97.96
2022-09-19T12:01:01.368Z,97.00
2022-09-19T12:02:18.038Z,97.08
2022-09-19T12:04:07.414Z,97.13
2022-09-19T12:05:57.337Z,98.01
2022-09-19T12:07:36.323Z,98.78
2022-09-19T12:08:49.910Z,98.67
2022-09-19T12:10:18.007Z,98.92
2022-09-19T12:11:27.681Z,100.00
2022-09-19T12:12:33.665Z,96.98
2022-09-19T12:13:58.657Z,95.29
2022-09-19T12:15:20.088Z,95.87
2022-09-19T12:16:47.199Z,95.42
2022-09-19T12:17:59.561Z,95.16
2022-09-19T12:19:14.320Z,95.98
2022-09-19T12:20:28.999Z,96.81
2022-09-19T12:21:43.968Z,96.24
2022-09-19T12:23:24.425Z,96.25
2022-09-19T12:24:31.781Z,95.79
2022-09-19T12:25:33.375Z,94.85
2022-09-19T12:26:46.694Z,95.29
2022-09-19T12:28:03.450Z,94.62
2022-09-19T12:29:17.503Z,94.16
2022-09-19T12:30:21.024Z,92.50
2022-09-19T12:31:32.157Z,92.49
2022-09-19T12:32:47.405Z,92.62
2022-09-19T12:34:02.584Z,92.24
2022-09-19T12:35:27.403Z,92.38
2022-09-19T12:36:43.914Z,93.67
2022-09-19T12:38:25.127Z,94.73
2022-09-19T12:39:31.658Z,95.92
2022-09-19T12:41:15.056Z,96.67
2022-09-19T12:42:30.167Z,95.65
2022-09-19T12:43:43.171Z,96.20
2022-09-19T12:45:00.349Z,95.37
2022-09-19T12:46:38.677Z,93.89
2022-09-19T12:48:03.644Z,92.38
2022-09-19T12:49:17.551Z,92.71
2022-09-19T12:50:35.771Z,93.09
2022-09-19T12:52:20.783Z,92.71
2022-09-19T12:53:45.794Z,91.60
2022-09-19T12:54:51.990Z,91.81
2022-09-19T12:55:57.505Z,93.07
2022-09-19T12:57:09.424Z,93.66
2022-09-19T12:58:18.630Z,95.07
2022-09-19T12:59:23.719Z,97.60
2022-09-19T13:00:25.233Z,97.77
2022-09-19T13:01:36.300Z,100.00
2022-09-19T13:03:13.565Z,100.00
2022-09-19T13:04:30.670Z,100.00
2022-09-19T13:05:38.432Z,100.00
2022-09-19T13:06:41.855Z,99.44
2022-09-19T13:07:51.969Z,100.00
2022-09-19T13:09:16.340Z,100.00
2022-09-19T13:10:28.618Z,100.00
2022-09-19T13:11:52.191Z,100.00
2022-09-19T13:13:15.784Z,100.00
2022-09-19T13:14:32.393Z,100.00
2022-09-19T13:15:52.229Z,100.00
2022-09-19T13:16:59.733Z,100.00
2022-09-19T13:18:02.242Z,100.00
2022-09-19T13:19:04.103Z,100.00
2022-09-19T13:20:16.961Z,100.00
2022-09-19T13:21:20.864Z,100.00
2022-09-19T13:22:22.798Z,100.00
2022-09-19T13:23:28.644Z,100.00
2022-09-19T13:24:42.144Z,100.00
2022-09-19T13:25:43.628Z,100.00
2022-09-19T13:26:53.983Z,100.00
2022-09-19T13:28:24.735Z,100.00
2022-09-19T13:29:26.095Z,100.00
2022-09-19T13:30:46.182Z,100.00
2022-09-19T13:31:50.432Z,100.00
2022-09-19T13:32:56.349Z,100.00
2022-09-19T13:33:58.507Z,100.00
2022-09-19T13:35:12.343Z,100.00
2022-09-19T13:36:18.290Z,100.00
2022-09-19T13:37:28.602Z,100.00
2022-09-19T13:38:40.606Z,100.00
2022-09-19T13:39:56.411Z,100.00
2022-09-19T13:41:11.021Z,100.00
2022-09-19T13:42:23.033Z,100.00
2022-09-19T13:43:36.999Z,100.00
2022-09-19T13:44:45.562Z,100.00
2022-09-19T13:46:01.136Z,100.00
2022-09-19T13:47:13.017Z,100.00
2022-09-19T13:48:55.811Z,100.00
2022-09-19T13:50:06.283Z,100.00
2022-09-19T13:51:33.473Z,100.00
2022-09-19T13:52:43.116Z,100.00
2022-09-19T13:53:46.557Z,100.00
2022-09-19T13:54:50.928Z,100.00
2022-09-19T13:56:00.613Z,100.00
2022-09-19T13:57:05.671Z,100.00
2022-09-19T13:58:31.166Z,100.00
2022-09-19T13:59:44.844Z,100.00
2022-09-19T14:01:05.056Z,100.00
2022-09-19T14:02:21.661Z,100.00
2022-09-19T14:03:29.306Z,100.00
2022-09-19T14:04:41.784Z,100.00
2022-09-19T14:05:43.300Z,100.00
2022-09-19T14:10:04.054Z,100.00
2022-09-19T14:11:07.668Z,100.00
2022-09-19T14:12:33.819Z,100.00
2022-09-19T14:13:37.467Z,100.00
2022-09-19T14:14:41.615Z,100.00
2022-09-19T14:15:43.032Z,100.00
2022-09-19T14:17:04.311Z,100.00
2022-09-19T14:18:08.678Z,100.00
2022-09-19T14:19:43.042Z,100.00
2022-09-19T14:20:54.554Z,100.00
2022-09-19T14:21:57.267Z,100.00
2022-09-19T14:23:03.260Z,100.00
2022-09-19T14:24:30.818Z,100.00
2022-09-19T14:25:32.688Z,100.00
2022-09-19T14:26:54.945Z,100.00
2022-09-19T14:28:18.704Z,100.00
2022-09-19T14:29:45.082Z,100.00
2022-09-19T14:31:05.305Z,100.00
2022-09-19T14:32:32.796Z,100.00
2022-09-19T14:33:43.934Z,100.00
2022-09-19T14:34:48.319Z,100.00
2022-09-19T14:36:01.832Z,100.00
2022-09-19T14:37:09.164Z,100.00
2022-09-19T14:38:33.454Z,100.00
2022-09-19T14:39:59.754Z,100.00
2022-09-19T14:41:11.544Z,100.00
2022-09-19T14:42:56.622Z,100.00
2022-09-19T14:44:21.546Z,100.00
2022-09-19T14:45:33.489Z,100.00
2022-09-19T14:46:40.937Z,100.00
2022-09-19T14:47:46.003Z,100.00
2022-09-19T14:49:16.550Z,100.00
2022-09-19T14:50:20.957Z,100.00
2022-09-19T14:51:32.086Z,100.00
2022-09-19T14:52:38.978Z,100.00
2022-09-19T14:53:42.458Z,100.00
2022-09-19T14:54:55.690Z,100.00
2022-09-19T14:56:02.895Z,100.00
2022-09-19T14:57:06.600Z,100.00